Time;durP1;ratioP1;P1;durP2;ratioP2;P2;SDS_P1;SDS_P2;PMS_P1;PMS_P2;Temp;Humidity;BMP_temperature;BMP_pressure;BME280_temperature;BME280_humidity;BME280_pressure;Samples;Min_cycle;Max_cycle;Signal;HPM_P1;HPM_P2
2022/04/08 00:00:39;;;;;;;11.13;1.90;;;5.40;99.90;;;;;;5077342;28;20131;-75
2022/04/08 00:03:06;;;;;;;10.65;1.75;;;5.40;99.90;;;;;;5095082;28;20048;-75
2022/04/08 00:05:34;;;;;;;7.75;1.60;;;5.40;99.90;;;;;;5077515;28;20101;-76
2022/04/08 00:08:01;;;;;;;5.35;1.50;;;5.40;99.90;;;;;;5095347;28;20055;-74
2022/04/08 00:10:28;;;;;;;7.68;1.90;;;5.40;99.90;;;;;;5077130;28;20097;-75
2022/04/08 00:12:55;;;;;;;5.30;2.13;;;5.40;99.90;;;;;;5077221;28;20131;-75
2022/04/08 00:15:22;;;;;;;4.22;1.20;;;5.30;99.90;;;;;;5077411;28;20142;-75
2022/04/08 00:17:48;;;;;;;6.32;1.92;;;5.30;99.90;;;;;;5095115;28;20555;-75
2022/04/08 00:20:15;;;;;;;4.63;1.60;;;5.30;99.90;;;;;;5095472;28;20105;-75
2022/04/08 00:22:43;;;;;;;2.65;0.93;;;5.20;99.90;;;;;;5094828;28;20106;-75
2022/04/08 00:25:11;;;;;;;4.13;1.10;;;5.20;99.90;;;;;;5095039;28;20131;-75
2022/04/08 00:27:38;;;;;;;5.25;1.27;;;5.10;99.90;;;;;;5077052;28;20450;-75
2022/04/08 00:30:06;;;;;;;5.22;0.90;;;4.90;99.90;;;;;;5076689;28;20055;-75
2022/04/08 00:32:34;;;;;;;2.30;1.10;;;4.80;99.90;;;;;;5077209;28;20135;-76
2022/04/08 00:35:01;;;;;;;5.05;1.30;;;4.70;99.90;;;;;;5095092;28;20048;-76
2022/04/08 00:37:28;;;;;;;5.57;1.52;;;4.60;99.90;;;;;;5076458;28;20051;-76
2022/04/08 00:39:56;;;;;;;7.03;1.20;;;4.50;99.90;;;;;;5094629;28;20575;-76
2022/04/08 00:42:23;;;;;;;8.90;1.73;;;4.50;99.90;;;;;;5094709;28;20087;-76
2022/04/08 00:44:49;;;;;;;4.43;1.10;;;4.50;99.90;;;;;;5076308;28;20051;-76
2022/04/08 00:47:16;;;;;;;4.22;1.17;;;4.40;99.90;;;;;;5076611;28;20136;-75
2022/04/08 00:49:43;;;;;;;9.45;1.38;;;4.50;99.90;;;;;;5076531;28;20480;-77
2022/04/08 00:52:11;;;;;;;4.72;1.38;;;4.50;99.90;;;;;;5093968;28;20101;-77
2022/04/08 00:54:38;;;;;;;3.95;1.13;;;4.50;99.90;;;;;;5076469;28;20124;-77
2022/04/08 00:57:06;;;;;;;8.95;1.85;;;4.50;99.90;;;;;;5075741;28;20544;-76
2022/04/08 00:59:33;;;;;;;7.63;1.83;;;4.50;99.90;;;;;;5076063;28;20131;-76
2022/04/08 01:02:00;;;;;;;10.07;2.28;;;4.50;99.90;;;;;;5094349;28;20525;-76
2022/04/08 01:04:27;;;;;;;5.60;1.77;;;4.40;99.90;;;;;;5076463;28;20130;-76
2022/04/08 01:06:54;;;;;;;9.43;2.17;;;4.40;99.90;;;;;;5075525;28;20139;-76
2022/04/08 01:09:22;;;;;;;9.60;1.73;;;4.30;99.90;;;;;;5072403;28;20529;-76
2022/04/08 01:11:49;;;;;;;8.63;1.80;;;4.30;99.90;;;;;;5074102;28;20037;-76
2022/04/08 01:14:17;;;;;;;11.75;2.30;;;4.20;99.90;;;;;;5082274;28;20086;-76
2022/04/08 01:16:45;;;;;;;10.80;2.30;;;4.20;99.90;;;;;;5094151;28;20236;-76
2022/04/08 01:19:11;;;;;;;7.53;1.83;;;4.10;99.90;;;;;;5093240;28;20496;-76
2022/04/08 01:21:38;;;;;;;8.13;1.95;;;4.10;99.90;;;;;;5076250;28;20507;-76
2022/04/08 01:24:10;;;;;;;14.02;2.03;;;4.10;99.90;;;;;;5072480;28;20135;-76
2022/04/08 01:26:38;;;;;;;5.40;1.70;;;4.10;99.90;;;;;;5073247;28;20052;-76
2022/04/08 01:29:05;;;;;;;9.70;2.03;;;4.10;99.90;;;;;;5052097;28;20095;-76
2022/04/08 01:31:32;;;;;;;12.55;3.10;;;4.10;99.90;;;;;;5053481;28;20080;-76
2022/04/08 01:33:58;;;;;;;5.45;1.90;;;4.00;99.90;;;;;;5051688;28;20076;-76
2022/04/08 01:36:25;;;;;;;10.95;2.58;;;4.10;99.90;;;;;;5061185;28;20080;-75
2022/04/08 01:38:52;;;;;;;6.00;1.50;;;4.00;99.90;;;;;;5072531;28;20127;-76
2022/04/08 01:41:20;;;;;;;4.35;1.40;;;4.00;99.90;;;;;;5071756;28;20052;-75
2022/04/08 01:43:49;;;;;;;11.02;1.83;;;4.00;99.90;;;;;;5072317;28;20485;-75
2022/04/08 01:46:15;;;;;;;4.45;1.70;;;4.00;99.90;;;;;;5072226;28;20079;-76
2022/04/08 01:48:42;;;;;;;5.03;1.90;;;4.00;99.90;;;;;;5071486;28;20578;-76
2022/04/08 01:51:09;;;;;;;7.55;1.90;;;4.00;99.90;;;;;;5071735;28;20085;-76
2022/04/08 01:53:36;;;;;;;6.82;1.40;;;4.00;99.90;;;;;;5072178;28;20087;-76
2022/04/08 01:56:02;;;;;;;7.38;1.80;;;4.00;99.90;;;;;;5072582;28;20120;-76
2022/04/08 01:58:29;;;;;;;4.60;1.33;;;4.00;99.90;;;;;;5071863;28;20139;-76
2022/04/08 02:00:58;;;;;;;8.20;2.03;;;4.00;99.90;;;;;;5071849;28;20480;-76
2022/04/08 02:03:25;;;;;;;8.25;1.70;;;3.90;99.90;;;;;;5072088;28;20539;-76
2022/04/08 02:05:52;;;;;;;14.05;3.78;;;3.90;99.90;;;;;;5072264;28;20056;-77
2022/04/08 02:08:19;;;;;;;14.02;2.17;;;3.90;99.90;;;;;;5071636;28;20119;-76
2022/04/08 02:10:46;;;;;;;8.48;1.80;;;3.90;99.90;;;;;;5071957;28;20076;-76
2022/04/08 02:13:13;;;;;;;12.73;1.92;;;4.00;99.90;;;;;;5073228;28;20103;-76
2022/04/08 02:15:40;;;;;;;11.73;2.50;;;4.00;99.90;;;;;;5071486;28;20131;-75
2022/04/08 02:18:08;;;;;;;10.43;2.15;;;4.00;99.90;;;;;;5071613;28;20110;-76
2022/04/08 02:20:36;;;;;;;9.13;2.22;;;4.00;99.90;;;;;;5071806;28;20190;-76
2022/04/08 02:23:05;;;;;;;7.65;2.30;;;4.00;99.90;;;;;;5070942;28;20106;-75
2022/04/08 02:25:32;;;;;;;8.57;1.80;;;4.10;99.90;;;;;;5071990;28;20091;-75
2022/04/08 02:28:00;;;;;;;9.38;2.70;;;4.10;99.90;;;;;;5076782;28;20476;-75
2022/04/08 02:30:27;;;;;;;5.50;2.15;;;4.20;99.90;;;;;;5074446;28;20086;-75
2022/04/08 02:32:54;;;;;;;8.20;1.73;;;4.20;99.90;;;;;;5092976;28;20084;-75
2022/04/08 02:35:22;;;;;;;7.00;2.05;;;4.20;99.90;;;;;;5075635;28;20087;-75
2022/04/08 02:37:49;;;;;;;7.85;1.77;;;4.10;99.90;;;;;;5092617;28;20047;-76
2022/04/08 02:40:15;;;;;;;6.45;1.48;;;4.00;99.90;;;;;;5075719;28;20082;-76
2022/04/08 02:42:42;;;;;;;12.48;2.70;;;4.00;99.90;;;;;;5074984;28;20056;-76
2022/04/08 02:45:10;;;;;;;5.45;1.30;;;4.00;99.90;;;;;;5074827;28;20180;-76
2022/04/08 02:47:41;;;;;;;7.22;1.77;;;3.90;99.90;;;;;;5071676;28;20416;-75
2022/04/08 02:50:08;;;;;;;7.15;1.98;;;3.80;99.90;;;;;;5055257;28;20128;-75
2022/04/08 02:52:37;;;;;;;8.77;2.15;;;3.80;99.90;;;;;;5055032;28;20099;-75
2022/04/08 02:55:05;;;;;;;5.57;1.95;;;3.80;99.90;;;;;;5055579;28;20131;-74
2022/04/08 02:57:32;;;;;;;12.23;1.95;;;3.80;99.90;;;;;;5072882;28;20049;-75
2022/04/08 03:00:00;;;;;;;12.20;2.58;;;3.80;99.90;;;;;;5056543;28;20098;-75
2022/04/08 03:02:27;;;;;;;6.20;1.58;;;3.70;99.90;;;;;;5072205;28;20087;-75
2022/04/08 03:04:54;;;;;;;6.05;2.08;;;3.60;99.90;;;;;;5092461;28;20503;-75
2022/04/08 03:07:20;;;;;;;11.15;2.50;;;3.60;99.90;;;;;;5075252;28;20048;-75
2022/04/08 03:09:50;;;;;;;6.43;1.90;;;3.60;99.90;;;;;;5075123;28;20080;-75
2022/04/08 03:12:18;;;;;;;8.27;2.75;;;3.60;99.90;;;;;;5092484;28;20051;-75
2022/04/08 03:14:45;;;;;;;7.68;3.08;;;3.60;99.90;;;;;;5075073;28;20056;-75
2022/04/08 03:17:11;;;;;;;8.75;2.10;;;3.60;99.90;;;;;;5093193;28;20044;-75
2022/04/08 03:19:38;;;;;;;5.80;2.08;;;3.50;99.90;;;;;;5074956;28;20135;-75
2022/04/08 03:22:06;;;;;;;7.55;2.30;;;3.50;99.90;;;;;;5079048;28;20087;-75
2022/04/08 03:24:33;;;;;;;6.05;2.30;;;3.50;99.90;;;;;;5079253;28;20048;-77
2022/04/08 03:27:01;;;;;;;6.72;2.20;;;3.40;99.90;;;;;;5078735;28;20450;-76
2022/04/08 03:29:28;;;;;;;6.65;2.28;;;3.40;99.90;;;;;;5078347;28;20044;-76
2022/04/08 03:31:54;;;;;;;7.95;2.05;;;3.50;99.90;;;;;;5078757;28;20105;-76
2022/04/08 03:34:21;;;;;;;5.65;1.85;;;3.50;99.90;;;;;;5096274;28;20052;-75
2022/04/08 03:36:48;;;;;;;12.35;2.22;;;3.50;99.90;;;;;;5078915;28;20048;-75
2022/04/08 03:39:16;;;;;;;13.00;2.55;;;3.50;99.90;;;;;;5096682;28;20076;-75
2022/04/08 03:41:43;;;;;;;9.23;2.63;;;3.50;99.90;;;;;;5077987;28;20064;-75
2022/04/08 03:44:11;;;;;;;6.72;1.70;;;3.40;99.90;;;;;;5096549;28;20508;-75
2022/04/08 03:46:37;;;;;;;5.88;2.00;;;3.30;99.90;;;;;;5096159;28;20048;-75
2022/04/08 03:49:11;;;;;;;9.45;2.05;;;3.30;99.90;;;;;;5078025;28;20105;-75
2022/04/08 03:51:38;;;;;;;6.70;1.70;;;3.30;99.90;;;;;;5078552;28;20048;-75
2022/04/08 03:54:05;;;;;;;14.45;2.10;;;3.40;99.90;;;;;;5095810;28;20130;-75
2022/04/08 03:56:32;;;;;;;9.60;1.65;;;3.50;99.90;;;;;;5096021;28;20075;-75
2022/04/08 03:58:58;;;;;;;7.65;1.58;;;3.50;99.90;;;;;;5096110;28;20040;-75
2022/04/08 04:01:27;;;;;;;5.95;1.80;;;3.60;99.90;;;;;;5095631;28;20126;-76
2022/04/08 04:03:54;;;;;;;7.90;2.35;;;3.50;99.90;;;;;;5078255;28;20135;-76
2022/04/08 04:06:20;;;;;;;6.75;1.35;;;3.30;99.90;;;;;;5077965;28;20080;-76
2022/04/08 04:08:47;;;;;;;7.30;2.40;;;3.20;99.90;;;;;;5077425;28;20088;-76
2022/04/08 04:11:16;;;;;;;5.38;1.80;;;3.10;99.90;;;;;;5077880;28;20083;-75
2022/04/08 04:13:43;;;;;;;9.50;2.78;;;3.10;99.90;;;;;;5096231;28;20052;-75
2022/04/08 04:16:10;;;;;;;3.78;1.60;;;3.00;99.90;;;;;;5077606;28;20048;-75
2022/04/08 04:18:38;;;;;;;5.78;1.80;;;3.00;99.90;;;;;;5096043;28;20119;-75
2022/04/08 04:21:06;;;;;;;4.00;1.88;;;3.00;99.90;;;;;;5077851;28;20169;-75
2022/04/08 04:23:33;;;;;;;6.47;1.65;;;3.00;99.90;;;;;;5077124;28;20450;-75
2022/04/08 04:26:00;;;;;;;8.98;2.20;;;3.00;99.90;;;;;;5077224;28;20094;-75
2022/04/08 04:28:29;;;;;;;4.15;1.23;;;2.90;99.90;;;;;;5095550;28;20060;-75
2022/04/08 04:30:59;;;;;;;3.10;1.45;;;2.80;99.90;;;;;;5094514;28;20132;-75
2022/04/08 04:33:26;;;;;;;3.93;1.40;;;2.80;99.90;;;;;;5076967;28;20496;-75
2022/04/08 04:35:55;;;;;;;4.53;1.30;;;2.70;99.90;;;;;;5087814;28;20453;-75
2022/04/08 04:38:22;;;;;;;3.15;1.20;;;2.70;99.90;;;;;;5062021;28;20094;-75
2022/04/08 04:40:49;;;;;;;4.18;1.40;;;2.60;99.90;;;;;;5067548;28;20076;-75
2022/04/08 04:43:16;;;;;;;2.83;1.33;;;2.60;99.90;;;;;;5089243;28;20113;-74
2022/04/08 04:45:43;;;;;;;2.80;1.35;;;2.60;99.90;;;;;;5070554;28;20056;-74
2022/04/08 04:48:11;;;;;;;4.25;1.95;;;2.70;99.90;;;;;;5088715;28;20395;-74
2022/04/08 04:50:38;;;;;;;6.30;1.80;;;2.90;99.90;;;;;;5066599;28;20075;-75
2022/04/08 04:53:07;;;;;;;4.90;1.90;;;2.90;99.90;;;;;;5065928;28;20673;-74
2022/04/08 04:55:33;;;;;;;4.07;1.70;;;2.90;99.90;;;;;;5091920;28;20127;-73
2022/04/08 04:58:01;;;;;;;9.35;1.85;;;3.00;99.90;;;;;;5086250;28;20461;-75
2022/04/08 05:00:28;;;;;;;6.10;1.80;;;3.00;99.90;;;;;;5072241;28;20059;-75
2022/04/08 05:02:54;;;;;;;6.30;1.80;;;2.90;99.90;;;;;;5070769;28;20083;-74
2022/04/08 05:05:21;;;;;;;3.13;1.45;;;2.90;99.90;;;;;;5089717;28;20101;-74
2022/04/08 05:07:48;;;;;;;4.20;1.88;;;2.80;99.90;;;;;;5091105;28;20079;-74
2022/04/08 05:10:16;;;;;;;10.27;2.08;;;2.80;99.90;;;;;;5071090;28;20079;-74
2022/04/08 05:12:43;;;;;;;4.45;1.38;;;2.60;99.90;;;;;;5070623;28;20068;-73
2022/04/08 05:15:11;;;;;;;5.30;1.45;;;2.90;99.90;;;;;;5063251;28;20575;-74
2022/04/08 05:17:38;;;;;;;2.70;1.38;;;3.00;99.90;;;;;;5084004;28;20049;-75
2022/04/08 05:20:07;;;;;;;4.30;1.55;;;3.00;99.90;;;;;;5086423;28;20128;-75
2022/04/08 05:22:34;;;;;;;3.58;1.50;;;3.00;99.90;;;;;;5069251;28;20483;-75
2022/04/08 05:25:01;;;;;;;6.18;1.70;;;3.00;99.90;;;;;;5066702;28;20097;-74
2022/04/08 05:27:37;;;;;;;2.58;1.48;;;3.00;99.90;;;;;;5068222;28;20048;-74
2022/04/08 05:30:06;;;;;;;5.38;1.92;;;3.00;99.90;;;;;;5068424;28;20044;-74
2022/04/08 05:32:33;;;;;;;4.00;1.40;;;3.00;99.90;;;;;;5049539;28;20063;-73
2022/04/08 05:35:00;;;;;;;2.30;1.30;;;3.00;99.90;;;;;;5067345;28;20056;-72
2022/04/08 05:37:28;;;;;;;3.35;1.30;;;3.10;99.90;;;;;;5068197;28;20395;-74
2022/04/08 05:39:55;;;;;;;3.55;1.45;;;3.10;99.90;;;;;;5049750;28;20049;-74
2022/04/08 05:42:22;;;;;;;4.25;1.35;;;3.10;99.90;;;;;;5047579;28;20052;-75
2022/04/08 05:44:50;;;;;;;5.00;1.50;;;3.20;99.90;;;;;;5064374;28;20570;-75
2022/04/08 05:47:17;;;;;;;2.63;1.75;;;3.20;99.90;;;;;;5063228;28;20087;-75
2022/04/08 05:49:44;;;;;;;3.45;1.75;;;3.30;99.90;;;;;;5069272;28;20507;-75
2022/04/08 05:52:12;;;;;;;2.33;1.60;;;3.50;99.90;;;;;;5045159;28;20071;-76
2022/04/08 05:54:38;;;;;;;4.70;1.35;;;3.60;99.90;;;;;;5059784;28;20055;-75
2022/04/08 05:57:06;;;;;;;3.78;2.13;;;3.60;99.90;;;;;;5057988;28;20044;-74
2022/04/08 05:59:37;;;;;;;6.63;1.65;;;3.70;99.90;;;;;;5074773;28;20459;-76
2022/04/08 06:02:06;;;;;;;5.18;1.70;;;3.80;99.90;;;;;;5053181;28;20129;-76
2022/04/08 06:04:33;;;;;;;6.82;2.30;;;3.80;99.90;;;;;;5051093;28;20052;-76
2022/04/08 06:07:00;;;;;;;3.40;1.45;;;3.80;99.90;;;;;;5037885;28;20057;-75
2022/04/08 06:09:27;;;;;;;3.45;1.42;;;3.80;99.90;;;;;;5053820;28;20084;-75
2022/04/08 06:11:54;;;;;;;5.57;1.50;;;3.90;99.90;;;;;;5071473;28;20095;-75
2022/04/08 06:14:21;;;;;;;3.17;1.55;;;4.00;99.90;;;;;;5070874;28;20118;-76
2022/04/08 06:16:48;;;;;;;3.67;1.30;;;4.10;99.90;;;;;;5053159;28;20061;-76
2022/04/08 06:19:16;;;;;;;4.82;1.23;;;4.40;99.90;;;;;;5071288;28;20080;-76
2022/04/08 06:21:43;;;;;;;3.88;1.70;;;4.80;99.90;;;;;;5070728;28;20519;-76
2022/04/08 06:24:10;;;;;;;5.63;1.60;;;5.40;99.90;;;;;;5053751;28;20569;-77
2022/04/08 06:26:38;;;;;;;4.80;1.67;;;6.10;99.90;;;;;;5071479;28;20134;-77
2022/04/08 06:29:05;;;;;;;6.70;1.70;;;6.80;99.90;;;;;;5062961;28;20143;-76
2022/04/08 06:31:32;;;;;;;7.57;2.17;;;7.50;99.90;;;;;;5072004;28;20164;-77
2022/04/08 06:34:00;;;;;;;6.40;2.00;;;8.10;99.90;;;;;;5071588;28;20084;-77
2022/04/08 06:36:29;;;;;;;5.63;1.92;;;8.60;99.90;;;;;;5065375;28;20415;-77
2022/04/08 06:38:56;;;;;;;4.05;1.50;;;8.90;99.90;;;;;;5069928;28;20076;-76
2022/04/08 06:41:23;;;;;;;8.30;2.13;;;9.60;99.90;;;;;;5069267;28;20086;-77
2022/04/08 06:43:50;;;;;;;6.40;1.75;;;9.70;99.90;;;;;;5071575;28;20056;-78
2022/04/08 06:46:17;;;;;;;3.97;1.27;;;10.10;99.90;;;;;;5071365;28;20056;-78
2022/04/08 06:48:44;;;;;;;5.50;1.65;;;10.40;99.90;;;;;;5071006;28;20056;-77
2022/04/08 06:51:11;;;;;;;4.03;1.73;;;10.30;99.90;;;;;;5069982;28;20504;-77
2022/04/08 06:53:39;;;;;;;4.47;1.70;;;10.40;99.90;;;;;;5071435;28;20492;-74
2022/04/08 06:56:06;;;;;;;6.40;1.67;;;10.80;99.90;;;;;;5071193;28;20127;-76
2022/04/08 06:58:38;;;;;;;7.72;1.95;;;11.30;99.90;;;;;;5078224;28;20153;-76
2022/04/08 07:01:06;;;;;;;5.60;1.70;;;11.60;99.90;;;;;;5078781;28;20123;-77
2022/04/08 07:03:33;;;;;;;7.00;1.63;;;12.00;99.90;;;;;;5077139;28;20059;-77
2022/04/08 07:06:00;;;;;;;4.35;1.38;;;12.50;99.90;;;;;;5078310;28;20049;-77
2022/04/08 07:08:27;;;;;;;4.95;1.63;;;12.80;99.90;;;;;;5077467;28;20059;-78
2022/04/08 07:10:55;;;;;;;5.07;2.13;;;13.00;99.90;;;;;;5076623;28;20048;-78
2022/04/08 07:13:22;;;;;;;8.20;1.98;;;13.20;99.90;;;;;;5078576;28;20048;-78
2022/04/08 07:15:49;;;;;;;9.50;1.90;;;13.30;99.90;;;;;;5078779;28;20046;-78
2022/04/08 07:18:16;;;;;;;7.78;2.22;;;13.40;99.90;;;;;;5078317;28;20088;-78
2022/04/08 07:20:43;;;;;;;6.35;1.70;;;13.70;99.90;;;;;;5080603;28;20049;-78
2022/04/08 07:23:10;;;;;;;5.82;1.40;;;13.80;99.90;;;;;;5077924;28;20055;-78
2022/04/08 07:25:38;;;;;;;5.40;1.80;;;13.40;99.90;;;;;;5077722;28;20098;-78
2022/04/08 07:28:07;;;;;;;5.97;1.70;;;12.80;99.90;;;;;;5076652;28;20061;-77
2022/04/08 07:30:34;;;;;;;6.70;1.63;;;12.20;99.90;;;;;;5077185;28;20409;-78
2022/04/08 07:33:03;;;;;;;6.45;1.95;;;11.90;99.90;;;;;;5076700;28;20088;-78
2022/04/08 07:35:33;;;;;;;7.22;2.03;;;12.20;99.90;;;;;;5077216;28;20064;-76
2022/04/08 07:38:00;;;;;;;5.70;2.00;;;11.30;99.90;;;;;;5074934;28;20045;-77
2022/04/08 07:40:27;;;;;;;6.10;1.48;;;10.60;99.90;;;;;;5078943;28;20378;-77
2022/04/08 07:42:54;;;;;;;3.55;1.52;;;9.90;99.90;;;;;;5077737;28;20409;-77
2022/04/08 07:45:27;;;;;;;3.92;1.48;;;9.20;99.90;;;;;;5078122;28;20048;-77
2022/04/08 07:47:55;;;;;;;7.13;1.80;;;8.60;99.90;;;;;;5077222;28;20131;-77
2022/04/08 07:50:22;;;;;;;3.83;1.50;;;8.80;99.90;;;;;;5076883;28;20053;-77
2022/04/08 07:52:49;;;;;;;5.35;1.65;;;9.90;99.90;;;;;;5078041;28;20462;-77
2022/04/08 07:55:17;;;;;;;7.57;1.73;;;11.00;99.90;;;;;;5078918;28;20420;-78
2022/04/08 07:57:46;;;;;;;7.75;1.80;;;12.10;99.90;;;;;;5077584;28;20053;-78
2022/04/08 08:00:14;;;;;;;8.02;1.80;;;12.80;99.90;;;;;;5081821;28;20499;-77
2022/04/08 08:02:43;;;;;;;4.28;1.42;;;13.00;99.90;;;;;;5078186;28;20075;-77
2022/04/08 08:05:10;;;;;;;4.18;1.67;;;14.10;99.90;;;;;;5078302;28;20105;-77
2022/04/08 08:07:45;;;;;;;5.70;1.98;;;14.80;99.90;;;;;;5073753;28;20052;-77
2022/04/08 08:10:15;;;;;;;5.93;1.77;;;15.50;99.90;;;;;;5073893;28;20056;-79
2022/04/08 08:12:42;;;;;;;5.30;1.55;;;16.20;99.50;;;;;;5075339;28;20487;-79
2022/04/08 08:15:10;;;;;;;7.68;1.48;;;16.00;99.90;;;;;;5074006;28;20105;-79
2022/04/08 08:17:37;;;;;;;7.55;1.70;;;15.50;99.90;;;;;;5074365;28;20045;-78
2022/04/08 08:20:07;;;;;;;5.30;1.60;;;14.40;99.90;;;;;;5073466;28;20488;-78
2022/04/08 08:22:34;;;;;;;5.40;1.70;;;13.50;99.90;;;;;;5073370;28;20561;-79
2022/04/08 08:25:02;;;;;;;7.15;1.85;;;12.40;99.90;;;;;;5074240;28;20067;-78
2022/04/08 08:27:29;;;;;;;6.50;1.75;;;11.80;99.90;;;;;;5072766;28;20094;-78
2022/04/08 08:29:56;;;;;;;5.75;1.50;;;12.20;99.90;;;;;;5072617;28;20139;-79
2022/04/08 08:32:23;;;;;;;6.95;1.80;;;12.80;99.90;;;;;;5068843;28;20123;-79
2022/04/08 08:34:49;;;;;;;8.65;1.58;;;14.10;99.90;;;;;;5072223;28;20117;-78
2022/04/08 08:37:19;;;;;;;5.03;1.42;;;14.70;99.90;;;;;;5072324;28;20052;-79
2022/04/08 08:39:46;;;;;;;4.05;1.20;;;15.00;99.90;;;;;;5072362;28;20057;-78
2022/04/08 08:42:13;;;;;;;6.72;1.75;;;14.10;98.70;;;;;;5071098;28;20060;-79
2022/04/08 08:44:40;;;;;;;6.13;1.60;;;12.90;99.90;;;;;;5066956;28;20084;-79
2022/04/08 08:47:12;;;;;;;5.75;1.20;;;12.10;99.90;;;;;;5074406;28;20095;-78
2022/04/08 08:49:46;;;;;;;6.13;2.08;;;11.10;99.90;;;;;;5071652;28;20048;-78
2022/04/08 08:52:13;;;;;;;4.70;1.13;;;11.60;99.90;;;;;;5072345;28;20048;-78
2022/04/08 08:54:41;;;;;;;3.95;1.40;;;12.90;99.90;;;;;;5072192;28;20084;-78
2022/04/08 08:57:09;;;;;;;4.90;1.25;;;13.00;99.90;;;;;;5071683;28;20575;-78
2022/04/08 08:59:37;;;;;;;8.60;1.58;;;12.40;99.90;;;;;;5073543;28;20082;-79
2022/04/08 09:02:04;;;;;;;3.88;1.05;;;11.60;99.90;;;;;;5072015;28;20079;-77
2022/04/08 09:04:31;;;;;;;3.88;1.40;;;10.60;99.90;;;;;;5071691;28;20697;-78
2022/04/08 09:06:59;;;;;;;3.90;1.40;;;9.80;99.90;;;;;;5072450;28;20060;-77
2022/04/08 09:09:30;;;;;;;7.30;1.58;;;9.10;99.90;;;;;;5075070;28;20091;-77
2022/04/08 09:12:09;;;;;;;5.65;1.70;;;8.60;99.90;;;;;;5071973;28;20047;-77
2022/04/08 09:14:36;;;;;;;3.95;1.30;;;8.40;99.90;;;;;;5072313;28;20076;-77
2022/04/08 09:17:03;;;;;;;6.40;1.92;;;8.50;99.90;;;;;;5074022;28;20075;-77
2022/04/08 09:19:33;;;;;;;11.30;2.13;;;9.30;99.90;;;;;;5072214;28;20048;-78
2022/04/08 09:22:01;;;;;;;5.57;1.70;;;10.80;99.90;;;;;;5071750;28;20053;-77
2022/04/08 09:24:28;;;;;;;5.57;1.38;;;11.80;99.90;;;;;;5070939;28;20048;-77
2022/04/08 09:26:55;;;;;;;3.35;1.50;;;12.00;99.90;;;;;;5072917;28;20048;-78
2022/04/08 09:29:24;;;;;;;3.75;1.17;;;11.60;99.90;;;;;;5071668;28;20070;-78
2022/04/08 09:31:52;;;;;;;2.13;0.80;;;10.40;99.90;;;;;;5070817;28;20474;-77
2022/04/08 09:34:21;;;;;;;2.25;0.60;;;9.70;99.90;;;;;;5071592;28;20084;-78
2022/04/08 09:36:48;;;;;;;2.10;0.90;;;8.80;99.90;;;;;;5071801;28;20056;-77
2022/04/08 09:39:16;;;;;;;2.45;0.88;;;8.30;99.90;;;;;;5072703;28;20109;-76
2022/04/08 09:41:44;;;;;;;2.17;0.90;;;8.50;99.90;;;;;;5071940;28;20057;-77
2022/04/08 09:44:12;;;;;;;4.55;1.08;;;8.90;99.90;;;;;;5072090;28;20048;-77
2022/04/08 09:46:41;;;;;;;2.75;1.05;;;9.30;99.90;;;;;;5072179;28;20451;-72
2022/04/08 09:49:08;;;;;;;4.00;1.08;;;9.40;99.90;;;;;;5071573;28;20254;-68
2022/04/08 09:51:38;;;;;;;3.30;1.20;;;10.60;99.90;;;;;;5070980;28;20080;-68
2022/04/08 09:54:07;;;;;;;3.80;1.45;;;11.90;99.90;;;;;;5069304;28;20054;-69
2022/04/08 09:56:36;;;;;;;3.72;1.65;;;13.00;99.90;;;;;;5072477;28;20078;-68
2022/04/08 09:59:05;;;;;;;4.68;1.35;;;13.90;99.90;;;;;;5072055;28;20058;-69
2022/04/08 10:01:34;;;;;;;4.15;1.30;;;14.40;99.90;;;;;;5075344;28;20044;-69
2022/04/08 10:04:05;;;;;;;5.00;1.40;;;15.10;99.90;;;;;;5071713;28;20095;-69
2022/04/08 10:06:32;;;;;;;4.90;1.50;;;14.40;99.90;;;;;;5070538;28;20049;-69
2022/04/08 10:09:00;;;;;;;3.38;1.17;;;13.30;99.90;;;;;;5070655;28;20559;-68
2022/04/08 10:11:40;;;;;;;5.68;1.00;;;12.30;99.90;;;;;;5070901;28;20521;-68
2022/04/08 10:14:18;;;;;;;3.78;0.80;;;11.30;99.90;;;;;;5071437;28;20063;-67
2022/04/08 10:16:51;;;;;;;2.63;0.98;;;10.40;99.90;;;;;;5070120;28;20151;-67
2022/04/08 10:19:21;;;;;;;2.60;1.10;;;10.20;99.90;;;;;;5070418;28;20135;-68
2022/04/08 10:21:52;;;;;;;3.45;1.00;;;10.80;99.90;;;;;;5071690;28;20129;-67
2022/04/08 10:24:23;;;;;;;2.88;0.93;;;12.20;99.90;;;;;;5071722;28;20135;-68
2022/04/08 10:26:58;;;;;;;5.43;1.20;;;13.00;99.90;;;;;;5073290;28;20135;-68
2022/04/08 10:29:25;;;;;;;3.85;1.35;;;12.40;99.90;;;;;;5070338;28;20140;-67
2022/04/08 10:31:56;;;;;;;4.43;1.33;;;12.20;99.90;;;;;;5071729;28;20044;-68
2022/04/08 10:34:24;;;;;;;4.93;1.60;;;12.10;99.90;;;;;;5071606;28;20052;-69
2022/04/08 10:36:52;;;;;;;4.53;1.13;;;12.30;99.90;;;;;;5072363;28;20567;-69
2022/04/08 10:39:21;;;;;;;4.13;1.05;;;13.40;99.90;;;;;;5071905;28;20396;-69
2022/04/08 10:41:50;;;;;;;3.42;1.02;;;14.10;99.90;;;;;;5072483;28;20041;-69
2022/04/08 10:44:18;;;;;;;2.72;0.88;;;13.70;99.90;;;;;;5071724;28;20052;-68
2022/04/08 10:46:53;;;;;;;3.60;1.00;;;13.00;99.90;;;;;;5071360;28;20584;-68
2022/04/08 10:49:20;;;;;;;4.07;1.33;;;12.30;99.90;;;;;;5071004;28;20092;-68
2022/04/08 10:51:50;;;;;;;4.63;1.20;;;11.80;99.90;;;;;;5067412;28;20102;-68
2022/04/08 10:54:17;;;;;;;3.55;1.13;;;11.60;99.90;;;;;;5066258;28;20053;-68
2022/04/08 10:56:44;;;;;;;3.33;0.85;;;12.20;99.90;;;;;;5065430;28;20136;-68
2022/04/08 10:59:11;;;;;;;5.82;1.52;;;12.70;99.90;;;;;;5067819;28;20113;-69
2022/04/08 11:01:46;;;;;;;6.60;1.30;;;13.60;99.90;;;;;;5066987;28;20458;-69
2022/04/08 11:04:13;;;;;;;7.30;1.23;;;14.10;99.90;;;;;;5066746;28;20122;-69
2022/04/08 11:06:40;;;;;;;6.00;1.30;;;14.80;99.90;;;;;;5068087;28;20056;-69
2022/04/08 11:09:10;;;;;;;4.50;1.52;;;15.10;99.90;;;;;;5067157;28;20139;-69
2022/04/08 11:11:38;;;;;;;5.50;1.40;;;15.20;99.90;;;;;;5063643;28;20041;-69
2022/04/08 11:14:06;;;;;;;5.13;1.10;;;14.90;99.90;;;;;;5066925;28;20135;-69
2022/04/08 11:16:34;;;;;;;5.30;1.02;;;13.90;99.70;;;;;;5065637;28;20131;-68
2022/04/08 11:19:05;;;;;;;4.40;1.05;;;12.90;99.30;;;;;;5068197;28;20048;-69
2022/04/08 11:21:34;;;;;;;5.45;1.42;;;12.70;99.90;;;;;;5067562;28;20473;-69
2022/04/08 11:24:02;;;;;;;4.60;1.60;;;12.80;99.90;;;;;;5067571;28;20148;-69
2022/04/08 11:26:32;;;;;;;4.53;1.45;;;13.30;99.90;;;;;;5066934;28;20135;-69
2022/04/08 11:29:10;;;;;;;5.18;1.35;;;13.40;99.90;;;;;;5080119;28;20056;-69
2022/04/08 11:31:37;;;;;;;6.75;1.35;;;13.60;99.90;;;;;;5085621;28;20519;-69
2022/04/08 11:34:04;;;;;;;5.63;1.20;;;14.00;99.90;;;;;;5072284;28;20101;-69
2022/04/08 11:36:31;;;;;;;5.45;1.33;;;14.30;99.90;;;;;;5091321;28;20083;-69
2022/04/08 11:38:58;;;;;;;5.88;1.48;;;14.80;99.90;;;;;;5071667;28;20086;-69
2022/04/08 11:41:25;;;;;;;4.20;1.38;;;14.50;99.90;;;;;;5074242;28;20083;-71
2022/04/08 11:43:54;;;;;;;3.15;1.08;;;14.30;99.90;;;;;;5076752;28;20458;-71
2022/04/08 11:46:20;;;;;;;5.30;1.50;;;13.80;99.90;;;;;;5094627;28;20079;-68
2022/04/08 11:48:49;;;;;;;3.47;1.35;;;13.80;99.90;;;;;;5076646;28;20139;-68
2022/04/08 11:51:18;;;;;;;8.38;1.58;;;14.00;99.90;;;;;;5076802;28;20056;-67
2022/04/08 11:53:47;;;;;;;4.35;1.70;;;14.20;99.90;;;;;;5093732;28;20089;-68
2022/04/08 11:56:21;;;;;;;4.63;1.20;;;14.00;99.90;;;;;;5094538;28;20044;-68
2022/04/08 11:58:55;;;;;;;2.83;1.00;;;13.60;99.50;;;;;;5094640;28;20135;-68
2022/04/08 12:01:22;;;;;;;3.75;1.35;;;13.20;98.20;;;;;;5094876;28;20521;-68
2022/04/08 12:03:52;;;;;;;5.38;1.30;;;12.70;99.10;;;;;;5076263;28;20128;-68
2022/04/08 12:06:19;;;;;;;7.88;1.80;;;12.10;99.90;;;;;;5093448;28;20051;-68
2022/04/08 12:08:47;;;;;;;5.30;1.35;;;12.50;99.90;;;;;;5094542;28;20480;-69
2022/04/08 12:11:14;;;;;;;8.85;2.10;;;13.30;99.90;;;;;;5075424;28;20056;-69
2022/04/08 12:13:42;;;;;;;5.25;1.40;;;14.30;99.90;;;;;;5075513;28;20083;-68
2022/04/08 12:16:11;;;;;;;2.92;1.00;;;14.70;99.90;;;;;;5094085;28;20508;-68
2022/04/08 12:18:48;;;;;;;4.03;1.00;;;14.00;96.60;;;;;;5054980;28;20131;-68
2022/04/08 12:21:22;;;;;;;7.90;2.08;;;14.60;97.40;;;;;;5072226;28;20198;-69
2022/04/08 12:23:50;;;;;;;5.95;1.20;;;15.10;95.00;;;;;;5093834;28;20452;-69
2022/04/08 12:26:18;;;;;;;4.80;1.42;;;15.40;95.50;;;;;;5085094;28;20059;-70
2022/04/08 12:28:45;;;;;;;4.07;1.40;;;15.80;95.60;;;;;;5070082;28;20052;-69
2022/04/08 12:31:15;;;;;;;5.75;1.25;;;14.80;95.70;;;;;;5094022;28;20044;-69
2022/04/08 12:33:44;;;;;;;3.47;1.48;;;13.20;98.20;;;;;;5075275;28;20079;-69
2022/04/08 12:36:13;;;;;;;4.15;1.20;;;12.20;99.40;;;;;;5071783;28;20060;-68
2022/04/08 12:38:41;;;;;;;3.38;1.13;;;11.50;99.90;;;;;;5073991;28;20044;-68
2022/04/08 12:41:10;;;;;;;3.83;1.58;;;11.20;99.90;;;;;;5094126;28;20403;-68
2022/04/08 12:43:37;;;;;;;2.35;0.80;;;11.00;99.90;;;;;;5092324;28;20058;-68
2022/04/08 12:46:04;;;;;;;3.25;1.10;;;11.20;99.90;;;;;;5093139;28;20135;-68
2022/04/08 12:48:32;;;;;;;2.53;0.90;;;12.30;99.90;;;;;;5093105;28;20047;-68
2022/04/08 12:50:59;;;;;;;2.97;1.08;;;13.90;99.90;;;;;;5093973;28;20142;-68
2022/04/08 12:53:29;;;;;;;8.13;1.33;;;14.70;99.90;;;;;;5074460;28;20474;-69
2022/04/08 12:55:56;;;;;;;3.03;1.30;;;15.60;99.00;;;;;;5075135;28;20055;-69